sensor_id;sensor_type;location;lat;lon;timestamp;pressure;altitude;pressure_sealevel;temperature;humidity
9784;BME280;4931;44.874;-1.092;2022-09-12T00:02:51;100711.34;;;23.45;69.90
9784;BME280;4931;44.874;-1.092;2022-09-12T00:07:37;100702.78;;;23.37;70.32
9784;BME280;4931;44.874;-1.092;2022-09-12T00:12:25;100701.78;;;23.26;70.91
9784;BME280;4931;44.874;-1.092;2022-09-12T00:17:10;100695.81;;;23.28;70.76
9784;BME280;4931;44.874;-1.092;2022-09-12T00:21:56;100684.03;;;23.18;71.54
9784;BME280;4931;44.874;-1.092;2022-09-12T00:26:41;100692.78;;;23.17;71.59
9784;BME280;4931;44.874;-1.092;2022-09-12T00:31:29;100679.97;;;23.16;71.31
9784;BME280;4931;44.874;-1.092;2022-09-12T00:36:16;100670.97;;;23.07;71.91
9784;BME280;4931;44.874;-1.092;2022-09-12T00:41:02;100663.75;;;23.05;72.05
9784;BME280;4931;44.874;-1.092;2022-09-12T00:45:47;100660.19;;;23.09;70.91
9784;BME280;4931;44.874;-1.092;2022-09-12T00:50:35;100651.69;;;23.01;72.07
9784;BME280;4931;44.874;-1.092;2022-09-12T00:55:24;100640.84;;;23.00;72.37
9784;BME280;4931;44.874;-1.092;2022-09-12T01:00:12;100647.41;;;23.08;71.39
9784;BME280;4931;44.874;-1.092;2022-09-12T01:04:59;100642.81;;;23.15;70.30
9784;BME280;4931;44.874;-1.092;2022-09-12T01:09:47;100623.78;;;23.05;70.69
9784;BME280;4931;44.874;-1.092;2022-09-12T01:14:33;100625.75;;;23.04;71.25
9784;BME280;4931;44.874;-1.092;2022-09-12T01:19:34;100620.59;;;23.07;69.77
9784;BME280;4931;44.874;-1.092;2022-09-12T01:24:39;100615.81;;;23.07;71.03
9784;BME280;4931;44.874;-1.092;2022-09-12T01:29:55;100617.31;;;23.01;70.59
9784;BME280;4931;44.874;-1.092;2022-09-12T01:34:48;100613.19;;;22.95;70.74
9784;BME280;4931;44.874;-1.092;2022-09-12T01:39:40;100609.13;;;22.92;70.59
9784;BME280;4931;44.874;-1.092;2022-09-12T01:44:35;100618.69;;;22.91;71.24
9784;BME280;4931;44.874;-1.092;2022-09-12T01:49:23;100612.97;;;22.84;71.29
9784;BME280;4931;44.874;-1.092;2022-09-12T01:54:16;100608.47;;;22.79;71.36
9784;BME280;4931;44.874;-1.092;2022-09-12T01:59:07;100611.25;;;22.79;71.51
9784;BME280;4931;44.874;-1.092;2022-09-12T02:03:57;100615.09;;;22.71;71.51
9784;BME280;4931;44.874;-1.092;2022-09-12T02:08:47;100606.09;;;22.62;72.53
9784;BME280;4931;44.874;-1.092;2022-09-12T02:13:42;100602.06;;;22.59;72.82
9784;BME280;4931;44.874;-1.092;2022-09-12T02:18:30;100606.75;;;22.55;72.77
9784;BME280;4931;44.874;-1.092;2022-09-12T02:23:20;100600.56;;;22.46;73.17
9784;BME280;4931;44.874;-1.092;2022-09-12T02:28:10;100588.94;;;22.28;74.16
9784;BME280;4931;44.874;-1.092;2022-09-12T02:33:00;100583.56;;;22.19;75.10
9784;BME280;4931;44.874;-1.092;2022-09-12T02:37:52;100593.66;;;22.24;75.55
9784;BME280;4931;44.874;-1.092;2022-09-12T02:42:40;100591.94;;;22.19;75.53
9784;BME280;4931;44.874;-1.092;2022-09-12T02:47:27;100581.94;;;22.18;76.39
9784;BME280;4931;44.874;-1.092;2022-09-12T02:52:18;100581.94;;;22.18;75.79
9784;BME280;4931;44.874;-1.092;2022-09-12T02:57:12;100569.97;;;22.17;76.67
9784;BME280;4931;44.874;-1.092;2022-09-12T03:02:14;100567.16;;;22.17;77.07
9784;BME280;4931;44.874;-1.092;2022-09-12T03:07:10;100556.91;;;22.05;77.54
9784;BME280;4931;44.874;-1.092;2022-09-12T03:12:10;100562.31;;;21.98;78.75
9784;BME280;4931;44.874;-1.092;2022-09-12T03:17:07;100560.00;;;22.00;79.43
9784;BME280;4931;44.874;-1.092;2022-09-12T03:22:02;100568.81;;;22.02;80.02
9784;BME280;4931;44.874;-1.092;2022-09-12T03:26:54;100557.38;;;21.92;81.10
9784;BME280;4931;44.874;-1.092;2022-09-12T03:31:51;100564.34;;;21.82;82.23
9784;BME280;4931;44.874;-1.092;2022-09-12T03:36:37;100564.88;;;21.71;84.11
9784;BME280;4931;44.874;-1.092;2022-09-12T03:41:22;100562.56;;;21.74;85.88
9784;BME280;4931;44.874;-1.092;2022-09-12T03:46:08;100564.72;;;21.64;87.53
9784;BME280;4931;44.874;-1.092;2022-09-12T03:50:59;100565.25;;;21.54;89.74
9784;BME280;4931;44.874;-1.092;2022-09-12T03:55:44;100560.34;;;21.51;91.03
9784;BME280;4931;44.874;-1.092;2022-09-12T04:00:29;100553.06;;;21.46;92.84
9784;BME280;4931;44.874;-1.092;2022-09-12T04:05:15;100545.38;;;21.43;93.78
9784;BME280;4931;44.874;-1.092;2022-09-12T04:10:03;100552.94;;;21.27;96.35
9784;BME280;4931;44.874;-1.092;2022-09-12T04:14:50;100548.63;;;21.29;97.54
9784;BME280;4931;44.874;-1.092;2022-09-12T04:19:36;100538.84;;;21.35;97.93
9784;BME280;4931;44.874;-1.092;2022-09-12T04:24:21;100526.31;;;21.29;99.23
9784;BME280;4931;44.874;-1.092;2022-09-12T04:29:09;100529.47;;;21.28;99.91
9784;BME280;4931;44.874;-1.092;2022-09-12T04:33:58;100530.44;;;21.19;100.00
9784;BME280;4931;44.874;-1.092;2022-09-12T04:38:44;100534.06;;;21.20;100.00
9784;BME280;4931;44.874;-1.092;2022-09-12T04:43:29;100530.22;;;20.96;100.00
9784;BME280;4931;44.874;-1.092;2022-09-12T04:48:17;100533.47;;;20.98;100.00
9784;BME280;4931;44.874;-1.092;2022-09-12T04:53:03;100537.97;;;21.03;100.00
9784;BME280;4931;44.874;-1.092;2022-09-12T04:57:48;100540.41;;;21.04;100.00
9784;BME280;4931;44.874;-1.092;2022-09-12T05:02:33;100548.59;;;20.97;100.00
9784;BME280;4931;44.874;-1.092;2022-09-12T05:07:21;100554.16;;;20.97;100.00
9784;BME280;4931;44.874;-1.092;2022-09-12T05:12:07;100566.97;;;20.86;100.00
9784;BME280;4931;44.874;-1.092;2022-09-12T05:16:52;100569.78;;;20.86;100.00
9784;BME280;4931;44.874;-1.092;2022-09-12T05:21:41;100567.34;;;20.84;100.00
9784;BME280;4931;44.874;-1.092;2022-09-12T05:26:28;100566.56;;;20.71;100.00
9784;BME280;4931;44.874;-1.092;2022-09-12T05:31:16;100574.22;;;20.75;100.00
9784;BME280;4931;44.874;-1.092;2022-09-12T05:36:02;100573.06;;;20.63;100.00
9784;BME280;4931;44.874;-1.092;2022-09-12T05:40:47;100576.09;;;20.70;100.00
9784;BME280;4931;44.874;-1.092;2022-09-12T05:45:35;100574.25;;;20.62;100.00
9784;BME280;4931;44.874;-1.092;2022-09-12T05:50:20;100577.50;;;20.52;100.00
9784;BME280;4931;44.874;-1.092;2022-09-12T05:55:07;100583.91;;;20.40;100.00
9784;BME280;4931;44.874;-1.092;2022-09-12T05:59:52;100571.03;;;20.35;100.00
9784;BME280;4931;44.874;-1.092;2022-09-12T06:04:41;100578.00;;;20.42;100.00
9784;BME280;4931;44.874;-1.092;2022-09-12T06:09:27;100587.38;;;20.49;100.00
9784;BME280;4931;44.874;-1.092;2022-09-12T06:14:14;100588.22;;;20.37;100.00
9784;BME280;4931;44.874;-1.092;2022-09-12T06:19:02;100585.50;;;20.53;100.00
9784;BME280;4931;44.874;-1.092;2022-09-12T06:23:50;100589.78;;;20.63;100.00
9784;BME280;4931;44.874;-1.092;2022-09-12T06:28:38;100603.72;;;20.76;100.00
9784;BME280;4931;44.874;-1.092;2022-09-12T06:33:24;100608.06;;;20.89;100.00
9784;BME280;4931;44.874;-1.092;2022-09-12T06:38:09;100608.97;;;21.05;100.00
9784;BME280;4931;44.874;-1.092;2022-09-12T06:42:57;100608.13;;;21.05;100.00
9784;BME280;4931;44.874;-1.092;2022-09-12T06:47:42;100599.53;;;21.26;100.00
9784;BME280;4931;44.874;-1.092;2022-09-12T06:52:27;100611.91;;;21.41;100.00
9784;BME280;4931;44.874;-1.092;2022-09-12T06:57:13;100606.66;;;21.68;100.00
9784;BME280;4931;44.874;-1.092;2022-09-12T07:02:01;100593.41;;;21.97;100.00
9784;BME280;4931;44.874;-1.092;2022-09-12T07:06:46;100594.38;;;22.36;100.00
9784;BME280;4931;44.874;-1.092;2022-09-12T07:11:33;100607.00;;;22.66;100.00
9784;BME280;4931;44.874;-1.092;2022-09-12T07:16:19;100612.34;;;23.33;100.00
9784;BME280;4931;44.874;-1.092;2022-09-12T07:21:10;100628.09;;;23.61;100.00
9784;BME280;4931;44.874;-1.092;2022-09-12T07:25:57;100608.47;;;23.38;100.00
9784;BME280;4931;44.874;-1.092;2022-09-12T07:30:42;100614.13;;;23.42;100.00
9784;BME280;4931;44.874;-1.092;2022-09-12T07:35:31;100601.69;;;24.09;100.00
9784;BME280;4931;44.874;-1.092;2022-09-12T07:40:19;100615.31;;;24.37;100.00
9784;BME280;4931;44.874;-1.092;2022-09-12T07:45:06;100613.41;;;25.02;97.37
9784;BME280;4931;44.874;-1.092;2022-09-12T07:49:53;100614.69;;;24.78;98.05
9784;BME280;4931;44.874;-1.092;2022-09-12T07:54:41;100598.19;;;25.07;97.21
9784;BME280;4931;44.874;-1.092;2022-09-12T07:59:29;100594.00;;;25.61;92.59
9784;BME280;4931;44.874;-1.092;2022-09-12T08:04:33;100602.78;;;25.56;92.80
9784;BME280;4931;44.874;-1.092;2022-09-12T08:09:18;100599.91;;;25.97;88.13
9784;BME280;4931;44.874;-1.092;2022-09-12T08:14:04;100596.81;;;26.13;87.02
9784;BME280;4931;44.874;-1.092;2022-09-12T08:18:51;100597.38;;;26.33;84.45
9784;BME280;4931;44.874;-1.092;2022-09-12T08:23:39;100598.91;;;26.97;81.53
9784;BME280;4931;44.874;-1.092;2022-09-12T08:28:25;100611.78;;;26.95;78.09
9784;BME280;4931;44.874;-1.092;2022-09-12T08:33:10;100614.66;;;27.27;75.28
9784;BME280;4931;44.874;-1.092;2022-09-12T08:37:59;100609.94;;;27.75;74.61
9784;BME280;4931;44.874;-1.092;2022-09-12T08:42:52;100614.00;;;28.10;69.71
9784;BME280;4931;44.874;-1.092;2022-09-12T08:47:42;100613.56;;;28.33;67.63
9784;BME280;4931;44.874;-1.092;2022-09-12T08:52:34;100621.16;;;28.69;65.12
9784;BME280;4931;44.874;-1.092;2022-09-12T08:57:22;100623.84;;;28.97;64.21
9784;BME280;4931;44.874;-1.092;2022-09-12T09:02:22;100627.75;;;29.18;61.17
9784;BME280;4931;44.874;-1.092;2022-09-12T09:07:20;100625.19;;;29.49;59.71
9784;BME280;4931;44.874;-1.092;2022-09-12T09:12:14;100624.75;;;30.10;57.91
9784;BME280;4931;44.874;-1.092;2022-09-12T09:17:09;100617.97;;;30.39;54.85
9784;BME280;4931;44.874;-1.092;2022-09-12T09:21:58;100615.81;;;30.16;54.26
9784;BME280;4931;44.874;-1.092;2022-09-12T09:26:49;100613.97;;;30.74;52.87
9784;BME280;4931;44.874;-1.092;2022-09-12T09:31:38;100626.81;;;31.17;51.04
9784;BME280;4931;44.874;-1.092;2022-09-12T09:36:35;100611.63;;;31.58;49.74
9784;BME280;4931;44.874;-1.092;2022-09-12T09:41:44;100593.75;;;31.65;50.00
9784;BME280;4931;44.874;-1.092;2022-09-12T09:46:34;100604.53;;;32.21;48.34
9784;BME280;4931;44.874;-1.092;2022-09-12T09:51:24;100615.88;;;32.21;47.75
9784;BME280;4931;44.874;-1.092;2022-09-12T09:56:23;100616.94;;;31.84;47.32
9784;BME280;4931;44.874;-1.092;2022-09-12T10:01:15;100623.19;;;31.95;47.75
9784;BME280;4931;44.874;-1.092;2022-09-12T10:06:06;100630.47;;;32.43;47.04
9784;BME280;4931;44.874;-1.092;2022-09-12T10:10:57;100620.06;;;32.37;45.92
9784;BME280;4931;44.874;-1.092;2022-09-12T10:15:55;100634.00;;;31.80;44.95
9784;BME280;4931;44.874;-1.092;2022-09-12T10:20:43;100624.50;;;31.90;45.75
9784;BME280;4931;44.874;-1.092;2022-09-12T10:25:28;100607.53;;;32.54;45.83
9784;BME280;4931;44.874;-1.092;2022-09-12T10:30:16;100594.44;;;32.60;43.63
9784;BME280;4931;44.874;-1.092;2022-09-12T10:35:07;100589.22;;;32.39;42.62
9784;BME280;4931;44.874;-1.092;2022-09-12T10:40:01;100574.28;;;32.11;40.52
9784;BME280;4931;44.874;-1.092;2022-09-12T10:44:52;100574.22;;;32.15;43.14
9784;BME280;4931;44.874;-1.092;2022-09-12T10:49:38;100578.66;;;31.95;45.08
9784;BME280;4931;44.874;-1.092;2022-09-12T10:54:26;100573.72;;;31.76;43.22
9784;BME280;4931;44.874;-1.092;2022-09-12T10:59:24;100584.94;;;31.56;44.82
9784;BME280;4931;44.874;-1.092;2022-09-12T11:04:27;100575.09;;;31.68;43.45
9784;BME280;4931;44.874;-1.092;2022-09-12T11:09:19;100575.97;;;32.92;40.67
9784;BME280;4931;44.874;-1.092;2022-09-12T11:14:18;100591.88;;;33.43;41.16
9784;BME280;4931;44.874;-1.092;2022-09-12T11:19:27;100589.06;;;33.92;41.92
9784;BME280;4931;44.874;-1.092;2022-09-12T11:24:37;100583.81;;;34.66;37.18
9784;BME280;4931;44.874;-1.092;2022-09-12T11:29:33;100573.44;;;34.60;37.14
9784;BME280;4931;44.874;-1.092;2022-09-12T11:34:31;100567.81;;;35.11;34.52
9784;BME280;4931;44.874;-1.092;2022-09-12T11:39:23;100563.03;;;35.34;33.17
9784;BME280;4931;44.874;-1.092;2022-09-12T11:44:17;100538.13;;;36.08;32.15
9784;BME280;4931;44.874;-1.092;2022-09-12T11:49:16;100536.97;;;36.18;31.32
9784;BME280;4931;44.874;-1.092;2022-09-12T11:54:11;100533.53;;;36.77;28.88
9784;BME280;4931;44.874;-1.092;2022-09-12T11:59:01;100522.94;;;36.11;27.43
9784;BME280;4931;44.874;-1.092;2022-09-12T12:03:48;100516.16;;;36.84;26.98
9784;BME280;4931;44.874;-1.092;2022-09-12T12:08:40;100523.03;;;36.74;27.32
9784;BME280;4931;44.874;-1.092;2022-09-12T12:13:30;100523.38;;;36.45;27.72
9784;BME280;4931;44.874;-1.092;2022-09-12T12:18:20;100510.31;;;36.66;27.28
9784;BME280;4931;44.874;-1.092;2022-09-12T12:23:21;100493.19;;;36.66;27.64
9784;BME280;4931;44.874;-1.092;2022-09-12T12:28:09;100489.63;;;36.52;27.12
9784;BME280;4931;44.874;-1.092;2022-09-12T12:32:58;100486.13;;;36.58;27.37
9784;BME280;4931;44.874;-1.092;2022-09-12T12:37:49;100483.16;;;37.43;26.82
9784;BME280;4931;44.874;-1.092;2022-09-12T12:43:01;100490.53;;;37.12;25.84
9784;BME280;4931;44.874;-1.092;2022-09-12T12:47:54;100475.91;;;37.10;26.63
9784;BME280;4931;44.874;-1.092;2022-09-12T12:52:46;100473.16;;;37.75;25.80
9784;BME280;4931;44.874;-1.092;2022-09-12T12:57:44;100464.25;;;37.45;25.16
9784;BME280;4931;44.874;-1.092;2022-09-12T13:02:33;100453.13;;;37.38;25.49
9784;BME280;4931;44.874;-1.092;2022-09-12T13:07:27;100465.84;;;36.87;25.04
9784;BME280;4931;44.874;-1.092;2022-09-12T13:12:19;100460.16;;;36.96;24.94
9784;BME280;4931;44.874;-1.092;2022-09-12T13:17:07;100448.56;;;36.91;25.08
9784;BME280;4931;44.874;-1.092;2022-09-12T13:22:00;100447.88;;;36.86;24.90
9784;BME280;4931;44.874;-1.092;2022-09-12T13:26:48;100458.31;;;36.80;25.10
9784;BME280;4931;44.874;-1.092;2022-09-12T13:31:34;100445.88;;;36.65;25.06
9784;BME280;4931;44.874;-1.092;2022-09-12T13:36:33;100435.75;;;36.73;25.14
9784;BME280;4931;44.874;-1.092;2022-09-12T13:41:36;100430.84;;;36.74;26.37
9784;BME280;4931;44.874;-1.092;2022-09-12T13:46:30;100425.34;;;36.88;25.54
9784;BME280;4931;44.874;-1.092;2022-09-12T13:51:21;100428.16;;;36.79;26.63
9784;BME280;4931;44.874;-1.092;2022-09-12T13:56:14;100420.19;;;36.65;25.33
9784;BME280;4931;44.874;-1.092;2022-09-12T14:01:06;100410.88;;;36.42;25.90
9784;BME280;4931;44.874;-1.092;2022-09-12T14:05:56;100403.72;;;36.37;26.27
9784;BME280;4931;44.874;-1.092;2022-09-12T14:10:43;100407.03;;;36.36;25.94
9784;BME280;4931;44.874;-1.092;2022-09-12T14:15:31;100405.22;;;36.51;25.29
9784;BME280;4931;44.874;-1.092;2022-09-12T14:20:21;100394.13;;;36.63;24.38
9784;BME280;4931;44.874;-1.092;2022-09-12T14:25:13;100391.63;;;36.74;24.41
9784;BME280;4931;44.874;-1.092;2022-09-12T14:30:01;100373.66;;;37.14;23.25
9784;BME280;4931;44.874;-1.092;2022-09-12T14:35:17;100374.97;;;37.41;23.39
9784;BME280;4931;44.874;-1.092;2022-09-12T14:40:16;100368.25;;;37.26;22.78
9784;BME280;4931;44.874;-1.092;2022-09-12T14:45:13;100372.41;;;37.80;22.71
9784;BME280;4931;44.874;-1.092;2022-09-12T14:50:00;100356.84;;;37.44;22.42
9784;BME280;4931;44.874;-1.092;2022-09-12T14:54:56;100357.78;;;37.78;23.20
9784;BME280;4931;44.874;-1.092;2022-09-12T14:59:44;100363.84;;;37.34;22.40
9784;BME280;4931;44.874;-1.092;2022-09-12T15:04:39;100363.84;;;37.34;22.78
9784;BME280;4931;44.874;-1.092;2022-09-12T15:09:25;100372.16;;;36.82;24.16
9784;BME280;4931;44.874;-1.092;2022-09-12T15:14:12;100361.88;;;37.03;24.61
9784;BME280;4931;44.874;-1.092;2022-09-12T15:19:00;100351.72;;;36.93;23.60
9784;BME280;4931;44.874;-1.092;2022-09-12T15:23:46;100344.41;;;36.92;23.13
9784;BME280;4931;44.874;-1.092;2022-09-12T15:28:32;100343.06;;;36.65;22.81
9784;BME280;4931;44.874;-1.092;2022-09-12T15:33:19;100341.06;;;36.43;22.95
9784;BME280;4931;44.874;-1.092;2022-09-12T15:38:08;100341.03;;;36.34;22.37
9784;BME280;4931;44.874;-1.092;2022-09-12T15:42:53;100330.28;;;36.38;23.06
9784;BME280;4931;44.874;-1.092;2022-09-12T15:47:38;100323.31;;;36.48;23.09
9784;BME280;4931;44.874;-1.092;2022-09-12T15:52:23;100323.81;;;36.47;23.54
9784;BME280;4931;44.874;-1.092;2022-09-12T15:57:12;100336.44;;;36.05;23.97
9784;BME280;4931;44.874;-1.092;2022-09-12T16:01:57;100339.84;;;35.90;23.47
9784;BME280;4931;44.874;-1.092;2022-09-12T16:06:43;100350.22;;;35.53;24.40
9784;BME280;4931;44.874;-1.092;2022-09-12T16:11:28;100354.06;;;35.24;25.08
9784;BME280;4931;44.874;-1.092;2022-09-12T16:16:16;100359.75;;;35.24;25.43
9784;BME280;4931;44.874;-1.092;2022-09-12T16:21:02;100371.63;;;35.22;25.76
9784;BME280;4931;44.874;-1.092;2022-09-12T16:25:56;100370.69;;;35.38;26.05
9784;BME280;4931;44.874;-1.092;2022-09-12T16:30:42;100369.28;;;35.30;26.47
9784;BME280;4931;44.874;-1.092;2022-09-12T16:35:30;100363.31;;;35.15;27.09
9784;BME280;4931;44.874;-1.092;2022-09-12T16:40:16;100347.00;;;35.16;26.96
9784;BME280;4931;44.874;-1.092;2022-09-12T16:45:01;100348.28;;;35.15;27.05
9784;BME280;4931;44.874;-1.092;2022-09-12T16:49:47;100343.66;;;35.30;27.50
9784;BME280;4931;44.874;-1.092;2022-09-12T16:54:36;100338.19;;;35.36;27.78
9784;BME280;4931;44.874;-1.092;2022-09-12T16:59:21;100334.59;;;35.22;28.04
9784;BME280;4931;44.874;-1.092;2022-09-12T17:04:06;100338.69;;;35.21;28.77
9784;BME280;4931;44.874;-1.092;2022-09-12T17:08:56;100329.97;;;35.03;28.42
9784;BME280;4931;44.874;-1.092;2022-09-12T17:13:48;100329.88;;;34.94;28.68
9784;BME280;4931;44.874;-1.092;2022-09-12T17:18:46;100332.75;;;34.94;29.49
9784;BME280;4931;44.874;-1.092;2022-09-12T17:23:31;100335.13;;;34.82;29.28
9784;BME280;4931;44.874;-1.092;2022-09-12T17:28:17;100339.13;;;34.59;29.63
9784;BME280;4931;44.874;-1.092;2022-09-12T17:33:05;100339.03;;;34.63;30.06
9784;BME280;4931;44.874;-1.092;2022-09-12T17:37:50;100331.72;;;34.62;30.17
9784;BME280;4931;44.874;-1.092;2022-09-12T17:42:35;100335.81;;;34.09;30.54
9784;BME280;4931;44.874;-1.092;2022-09-12T17:47:21;100328.66;;;33.33;32.30
9784;BME280;4931;44.874;-1.092;2022-09-12T17:52:09;100329.84;;;33.02;33.78
9784;BME280;4931;44.874;-1.092;2022-09-12T17:56:54;100304.03;;;32.64;35.13
9784;BME280;4931;44.874;-1.092;2022-09-12T18:01:40;100317.28;;;32.17;35.00
9784;BME280;4931;44.874;-1.092;2022-09-12T18:06:38;100330.34;;;32.11;34.67
9784;BME280;4931;44.874;-1.092;2022-09-12T18:11:31;100327.50;;;31.94;35.19
9784;BME280;4931;44.874;-1.092;2022-09-12T18:16:16;100329.94;;;31.92;35.00
9784;BME280;4931;44.874;-1.092;2022-09-12T18:21:02;100333.47;;;31.80;36.19
9784;BME280;4931;44.874;-1.092;2022-09-12T18:25:48;100324.28;;;31.52;37.47
9784;BME280;4931;44.874;-1.092;2022-09-12T18:30:36;100328.88;;;31.66;36.30
9784;BME280;4931;44.874;-1.092;2022-09-12T18:35:21;100334.97;;;31.85;37.27
9784;BME280;4931;44.874;-1.092;2022-09-12T18:40:07;100350.94;;;32.15;36.56
9784;BME280;4931;44.874;-1.092;2022-09-12T18:44:52;100371.41;;;31.86;36.15
9784;BME280;4931;44.874;-1.092;2022-09-12T18:49:40;100388.53;;;32.39;33.68
9784;BME280;4931;44.874;-1.092;2022-09-12T18:54:25;100391.25;;;32.06;33.35
9784;BME280;4931;44.874;-1.092;2022-09-12T18:59:11;100386.66;;;32.33;32.48
9784;BME280;4931;44.874;-1.092;2022-09-12T19:03:57;100380.69;;;32.07;33.04
9784;BME280;4931;44.874;-1.092;2022-09-12T19:08:46;100374.16;;;32.10;33.53
9784;BME280;4931;44.874;-1.092;2022-09-12T19:13:33;100376.56;;;32.11;33.96
9784;BME280;4931;44.874;-1.092;2022-09-12T19:18:19;100361.44;;;31.98;34.72
9784;BME280;4931;44.874;-1.092;2022-09-12T19:23:04;100365.56;;;31.53;35.34
9784;BME280;4931;44.874;-1.092;2022-09-12T19:27:52;100355.78;;;31.14;36.64
9784;BME280;4931;44.874;-1.092;2022-09-12T19:32:38;100360.25;;;30.88;37.42
9784;BME280;4931;44.874;-1.092;2022-09-12T19:37:23;100353.88;;;30.56;39.15
9784;BME280;4931;44.874;-1.092;2022-09-12T19:42:08;100359.72;;;30.42;40.06
9784;BME280;4931;44.874;-1.092;2022-09-12T19:46:56;100368.34;;;30.31;40.96
9784;BME280;4931;44.874;-1.092;2022-09-12T19:51:42;100371.16;;;30.04;42.39
9784;BME280;4931;44.874;-1.092;2022-09-12T19:56:27;100373.91;;;29.73;43.55
9784;BME280;4931;44.874;-1.092;2022-09-12T20:01:14;100372.97;;;29.83;43.56
9784;BME280;4931;44.874;-1.092;2022-09-12T20:06:05;100386.19;;;29.59;45.43
9784;BME280;4931;44.874;-1.092;2022-09-12T20:10:50;100393.53;;;29.49;46.48
9784;BME280;4931;44.874;-1.092;2022-09-12T20:15:38;100401.22;;;29.48;46.75
9784;BME280;4931;44.874;-1.092;2022-09-12T20:20:23;100397.66;;;29.41;47.88
9784;BME280;4931;44.874;-1.092;2022-09-12T20:25:11;100401.88;;;29.18;49.91
9784;BME280;4931;44.874;-1.092;2022-09-12T20:29:57;100425.91;;;29.41;50.15
9784;BME280;4931;44.874;-1.092;2022-09-12T20:34:42;100440.22;;;29.64;49.20
9784;BME280;4931;44.874;-1.092;2022-09-12T20:39:27;100456.13;;;29.47;50.07
9784;BME280;4931;44.874;-1.092;2022-09-12T20:44:15;100478.03;;;29.33;50.67
9784;BME280;4931;44.874;-1.092;2022-09-12T20:49:01;100512.00;;;29.18;52.42
9784;BME280;4931;44.874;-1.092;2022-09-12T20:53:51;100550.31;;;29.19;54.05
9784;BME280;4931;44.874;-1.092;2022-09-12T20:58:37;100583.66;;;28.54;83.37
9784;BME280;4931;44.874;-1.092;2022-09-12T21:03:28;100587.75;;;27.41;100.00
9784;BME280;4931;44.874;-1.092;2022-09-12T21:08:13;100591.47;;;26.60;100.00
9784;BME280;4931;44.874;-1.092;2022-09-12T21:12:58;100606.97;;;26.25;100.00
9784;BME280;4931;44.874;-1.092;2022-09-12T21:17:43;100626.16;;;26.12;100.00
9784;BME280;4931;44.874;-1.092;2022-09-12T21:22:31;100620.44;;;25.60;100.00
9784;BME280;4931;44.874;-1.092;2022-09-12T21:27:16;100647.59;;;25.49;100.00
9784;BME280;4931;44.874;-1.092;2022-09-12T21:32:01;100646.84;;;25.18;100.00
9784;BME280;4931;44.874;-1.092;2022-09-12T21:36:50;100664.03;;;25.13;100.00
9784;BME280;4931;44.874;-1.092;2022-09-12T21:41:37;100685.88;;;25.30;100.00
9784;BME280;4931;44.874;-1.092;2022-09-12T21:46:23;100722.16;;;25.43;100.00
9784;BME280;4931;44.874;-1.092;2022-09-12T21:51:09;100768.06;;;25.27;100.00
9784;BME280;4931;44.874;-1.092;2022-09-12T21:55:54;100800.22;;;25.07;100.00
9784;BME280;4931;44.874;-1.092;2022-09-12T22:00:46;100811.19;;;24.42;100.00
9784;BME280;4931;44.874;-1.092;2022-09-12T22:05:33;100794.44;;;23.99;100.00
9784;BME280;4931;44.874;-1.092;2022-09-12T22:10:21;100819.19;;;23.97;100.00
9784;BME280;4931;44.874;-1.092;2022-09-12T22:15:07;100813.38;;;23.67;100.00
9784;BME280;4931;44.874;-1.092;2022-09-12T22:20:16;100821.84;;;23.35;100.00
9784;BME280;4931;44.874;-1.092;2022-09-12T22:25:02;100825.00;;;23.14;100.00
9784;BME280;4931;44.874;-1.092;2022-09-12T22:29:49;100820.78;;;22.88;100.00
9784;BME280;4931;44.874;-1.092;2022-09-12T22:34:35;100772.91;;;23.25;100.00
9784;BME280;4931;44.874;-1.092;2022-09-12T22:39:23;100767.59;;;23.40;100.00
9784;BME280;4931;44.874;-1.092;2022-09-12T22:44:09;100731.34;;;23.66;100.00
9784;BME280;4931;44.874;-1.092;2022-09-12T22:48:56;100708.34;;;23.77;100.00
9784;BME280;4931;44.874;-1.092;2022-09-12T22:53:41;100685.81;;;23.69;100.00
9784;BME280;4931;44.874;-1.092;2022-09-12T22:58:31;100671.25;;;23.60;100.00
9784;BME280;4931;44.874;-1.092;2022-09-12T23:03:19;100669.63;;;23.59;100.00
9784;BME280;4931;44.874;-1.092;2022-09-12T23:08:05;100658.69;;;23.74;100.00
9784;BME280;4931;44.874;-1.092;2022-09-12T23:12:50;100636.03;;;23.59;100.00
9784;BME280;4931;44.874;-1.092;2022-09-12T23:17:39;100613.31;;;23.64;100.00
9784;BME280;4931;44.874;-1.092;2022-09-12T23:22:24;100597.94;;;23.31;100.00
9784;BME280;4931;44.874;-1.092;2022-09-12T23:27:09;100574.53;;;23.20;100.00
9784;BME280;4931;44.874;-1.092;2022-09-12T23:31:54;100549.94;;;22.90;100.00
9784;BME280;4931;44.874;-1.092;2022-09-12T23:36:42;100536.28;;;22.85;100.00
9784;BME280;4931;44.874;-1.092;2022-09-12T23:41:27;100519.28;;;22.94;100.00
9784;BME280;4931;44.874;-1.092;2022-09-12T23:46:14;100505.44;;;23.01;100.00
9784;BME280;4931;44.874;-1.092;2022-09-12T23:50:59;100496.41;;;22.88;100.00
9784;BME280;4931;44.874;-1.092;2022-09-12T23:55:48;100487.34;;;22.95;100.00
